This is the latest recevied weather packets stored in our database for station/object WY1B. If no packets are shown the sender has not sent any weather packets the latest 10 day(s).
| Time | Temp. | Humidity | Pressure | Rain* | Wind** | Luminosity | Snow |
|---|---|---|---|---|---|---|---|
| 1787794652 | 43.33° C | 17% | 1001 hPa | 0 mm | - | 13 W/m² | - |
| 1787794347 | 43.89° C | 17% | 1001.1 hPa | 0 mm | - | 15 W/m² | - |
| 1787794042 | 43.89° C | 17% | 1000.8 hPa | 0 mm | - | 18 W/m² | - |
| 1787793738 | 45° C | 16% | 1001.1 hPa | 0 mm | - | 22 W/m² | - |
| 1787793438 | 45.56° C | 16% | 1001 hPa | 0 mm | - | 27 W/m² | - |
| 1787793134 | 46.11° C | 15% | 1001.1 hPa | 0 mm | - | 33 W/m² | - |
| 1787792828 | 46.67° C | 15% | 1001 hPa | 0 mm | - | 36 W/m² | - |
| 1787792529 | 46.67° C | 15% | 1000.9 hPa | 0 mm | - | 50 W/m² | - |
| 1787792226 | 47.22° C | 15% | 1001 hPa | 0 mm | - | 52 W/m² | - |
| 1787791925 | 47.22° C | 15% | 1001 hPa | 0 mm | - | 69 W/m² | - |
| 1787791624 | 47.22° C | 15% | 1001.1 hPa | 0 mm | - | 103 W/m² | - |
| 1787791321 | 47.22° C | 15% | 1001 hPa | 0 mm | - | 76 W/m² | - |
| 1787791015 | 47.22° C | 15% | 1001.2 hPa | 0 mm | - | 86 W/m² | - |
| 1787790712 | 47.78° C | 15% | 1001 hPa | 0 mm | - | 67 W/m² | - |
| 1787790406 | 47.78° C | 15% | 1001.1 hPa | 0 mm | - | 106 W/m² | - |
| 1787790101 | 47.78° C | 16% | 1001 hPa | 0 mm | - | 149 W/m² | - |
| 1787789798 | 47.78° C | 15% | 1001.1 hPa | 0 mm | - | 162 W/m² | - |
| 1787789498 | 48.33° C | 15% | 1001.3 hPa | 0 mm | - | 167 W/m² | - |
| 1787789196 | 47.78° C | 15% | 1001.2 hPa | 0 mm | - | 195 W/m² | - |
| 1787788891 | 47.22° C | 17% | 1001 hPa | 0 mm | - | 213 W/m² | - |
| 1787788589 | 47.22° C | 16% | 1001.2 hPa | 0 mm | - | 223 W/m² | - |
| 1787788284 | 46.67° C | 16% | 1001.2 hPa | 0 mm | - | 238 W/m² | - |
| 1787787980 | 47.22° C | 17% | 1001.2 hPa | 0 mm | - | 194 W/m² | - |
| 1787787679 | 47.78° C | 16% | 1001.2 hPa | 0 mm | - | 173 W/m² | - |
| 1787787378 | 48.89° C | 16% | 1001 hPa | 0 mm | - | 134 W/m² | - |
* Rain latest hour (hover to see other rain measurements)
** Current wind speed in m/s (hover to see current wind gust speed)